Time;durP1;ratioP1;P1;durP2;ratioP2;P2;SDS_P1;SDS_P2;PMS_P1;PMS_P2;Temp;Humidity;BMP_temperature;BMP_pressure;BME280_temperature;BME280_humidity;BME280_pressure;Samples;Min_cycle;Max_cycle;Signal;HPM_P1;HPM_P2
2022/08/01 00:01:50;;;;;;;21.23;10.75;;;17.80;99.90;;;;;;5075146;28;20044;-80
2022/08/01 00:04:16;;;;;;;26.73;11.43;;;17.70;99.90;;;;;;5092875;28;20051;-81
2022/08/01 00:06:42;;;;;;;24.58;11.27;;;17.80;99.90;;;;;;5092734;28;20182;-80
2022/08/01 00:09:07;;;;;;;16.40;10.50;;;17.70;99.90;;;;;;5092880;28;20056;-79
2022/08/01 00:11:33;;;;;;;22.30;10.95;;;17.70;99.90;;;;;;5074872;28;20393;-80
2022/08/01 00:13:58;;;;;;;21.90;10.68;;;17.70;99.90;;;;;;5074366;28;20473;-80
2022/08/01 00:16:24;;;;;;;22.80;10.43;;;17.60;99.90;;;;;;5092805;28;20059;-80
2022/08/01 00:18:51;;;;;;;18.13;9.52;;;17.60;99.90;;;;;;5074695;28;20046;-80
2022/08/01 00:21:17;;;;;;;25.05;11.10;;;17.60;99.90;;;;;;5092631;28;20105;-81
2022/08/01 00:23:45;;;;;;;19.30;10.45;;;17.60;99.90;;;;;;5074768;28;20083;-81
2022/08/01 00:26:12;;;;;;;27.50;10.88;;;17.60;99.90;;;;;;5074860;28;20052;-80
2022/08/01 00:28:37;;;;;;;27.70;11.75;;;17.60;99.90;;;;;;5075097;28;20044;-80
2022/08/01 00:31:03;;;;;;;22.20;10.80;;;17.60;99.90;;;;;;5092665;28;20070;-80
2022/08/01 00:33:29;;;;;;;15.43;8.45;;;17.60;99.90;;;;;;5092586;28;20083;-80
2022/08/01 00:35:54;;;;;;;20.08;10.27;;;17.60;99.90;;;;;;5074610;28;20040;-79
2022/08/01 00:38:20;;;;;;;20.48;10.23;;;17.60;99.90;;;;;;5074123;28;20135;-81
2022/08/01 00:40:46;;;;;;;15.82;10.13;;;17.60;99.90;;;;;;5092411;28;20602;-83
2022/08/01 00:43:11;;;;;;;19.45;10.77;;;17.60;99.90;;;;;;5092348;28;20040;-82
2022/08/01 00:45:37;;;;;;;18.65;10.20;;;17.70;99.90;;;;;;5074835;28;20036;-80
2022/08/01 00:48:03;;;;;;;14.77;9.73;;;17.50;99.90;;;;;;5092553;28;20070;-81
2022/08/01 00:50:29;;;;;;;21.48;10.38;;;17.60;99.90;;;;;;5092498;28;20040;-81
2022/08/01 00:52:55;;;;;;;20.95;10.35;;;17.50;99.90;;;;;;5092404;28;20537;-81
2022/08/01 00:55:21;;;;;;;24.90;10.98;;;17.60;99.90;;;;;;5092374;28;20051;-81
2022/08/01 00:57:48;;;;;;;21.98;10.70;;;17.50;99.90;;;;;;5092126;28;20185;-81
2022/08/01 01:00:14;;;;;;;19.55;11.80;;;17.50;99.90;;;;;;5074811;28;20205;-81
2022/08/01 01:02:40;;;;;;;24.88;11.05;;;17.60;99.90;;;;;;5074251;28;20083;-85
2022/08/01 01:05:06;;;;;;;21.05;10.63;;;17.50;99.90;;;;;;5092153;28;20144;-80
2022/08/01 01:07:43;;;;;;;16.90;9.75;;;17.60;99.90;;;;;;5092165;28;20047;-81
2022/08/01 01:10:16;;;;;;;21.38;11.05;;;17.60;99.90;;;;;;5057707;28;20048;-81
2022/08/01 01:12:58;;;;;;;23.88;11.57;;;17.60;99.90;;;;;;5094089;28;20048;-81
2022/08/01 01:15:41;;;;;;;19.90;11.27;;;17.60;99.90;;;;;;5096072;28;20130;-80
2022/08/01 01:18:25;;;;;;;18.60;10.75;;;17.60;99.90;;;;;;5095887;28;20043;-80
2022/08/01 01:21:05;;;;;;;25.38;11.73;;;17.60;99.90;;;;;;5095440;28;20040;-81
2022/08/01 01:23:59;;;;;;;21.98;11.27;;;17.60;99.90;;;;;;5095886;28;20052;-80
2022/08/01 01:26:43;;;;;;;24.83;11.25;;;17.50;99.90;;;;;;5077854;28;20110;-81
2022/08/01 01:29:17;;;;;;;17.65;10.43;;;17.60;99.90;;;;;;5061057;28;20048;-81
2022/08/01 01:31:55;;;;;;;18.92;10.43;;;17.50;99.90;;;;;;5095918;28;20048;-81
2022/08/01 01:34:23;;;;;;;27.15;10.95;;;17.50;99.90;;;;;;5095608;28;20497;-80
2022/08/01 01:36:51;;;;;;;27.85;11.50;;;17.50;99.90;;;;;;5095371;28;20482;-80
2022/08/01 01:39:19;;;;;;;27.40;11.63;;;17.50;99.90;;;;;;5095438;28;20130;-81
2022/08/01 01:41:48;;;;;;;24.27;11.95;;;17.70;99.90;;;;;;5077469;28;20044;-81
2022/08/01 01:44:15;;;;;;;23.58;11.15;;;17.60;99.90;;;;;;5077513;28;20048;-81
2022/08/01 01:46:41;;;;;;;22.42;10.90;;;17.60;99.90;;;;;;5077428;28;20051;-80
2022/08/01 01:49:10;;;;;;;23.92;10.77;;;17.50;99.90;;;;;;5095506;28;20105;-80
2022/08/01 01:51:37;;;;;;;21.42;10.02;;;17.50;99.90;;;;;;5095235;28;20362;-80
2022/08/01 01:54:04;;;;;;;16.55;10.23;;;17.60;99.90;;;;;;5095657;28;20047;-81
2022/08/01 01:56:30;;;;;;;17.40;10.27;;;17.50;99.90;;;;;;5095018;28;20044;-81
2022/08/01 01:59:02;;;;;;;19.30;10.27;;;17.50;99.90;;;;;;5095346;28;20063;-81
2022/08/01 02:01:33;;;;;;;18.60;10.10;;;17.40;99.90;;;;;;5095309;28;20146;-81
2022/08/01 02:04:02;;;;;;;15.52;8.88;;;17.50;99.90;;;;;;5077189;28;20059;-81
2022/08/01 02:06:29;;;;;;;15.75;9.73;;;17.50;99.90;;;;;;5076448;28;20477;-80
2022/08/01 02:08:56;;;;;;;16.52;10.57;;;17.50;99.90;;;;;;5077041;28;20094;-81
2022/08/01 02:11:22;;;;;;;16.40;10.30;;;17.40;99.90;;;;;;5094634;28;20047;-81
2022/08/01 02:14:02;;;;;;;20.02;10.25;;;17.40;99.90;;;;;;5077300;28;20092;-80
2022/08/01 02:16:33;;;;;;;15.00;10.02;;;17.50;99.90;;;;;;5094624;28;20058;-80
2022/08/01 02:18:59;;;;;;;10.45;6.80;;;17.50;99.90;;;;;;5094772;28;20052;-80
2022/08/01 02:21:39;;;;;;;13.38;7.82;;;17.50;99.90;;;;;;5076793;28;20499;-81
2022/08/01 02:24:14;;;;;;;15.77;7.82;;;17.40;99.90;;;;;;5076090;28;20055;-78
2022/08/01 02:26:47;;;;;;;16.55;9.55;;;17.30;99.90;;;;;;5076707;28;20476;-79
2022/08/01 02:29:19;;;;;;;15.45;8.45;;;17.30;99.90;;;;;;5094348;28;20056;-78
2022/08/01 02:31:47;;;;;;;14.18;7.43;;;17.30;99.90;;;;;;5076956;28;20498;-79
2022/08/01 02:34:17;;;;;;;16.30;8.63;;;17.40;99.90;;;;;;5076402;28;20127;-79
2022/08/01 02:36:45;;;;;;;20.92;9.38;;;17.30;99.90;;;;;;5094698;28;20048;-79
2022/08/01 02:39:14;;;;;;;16.30;8.75;;;17.30;99.90;;;;;;5094545;28;20090;-79
2022/08/01 02:41:42;;;;;;;19.38;9.88;;;17.30;99.90;;;;;;5094188;28;20051;-80
2022/08/01 02:44:11;;;;;;;19.48;9.02;;;17.30;99.90;;;;;;5094296;28;20048;-78
2022/08/01 02:46:40;;;;;;;17.65;9.23;;;17.30;99.90;;;;;;5076274;28;20530;-79
2022/08/01 02:49:08;;;;;;;18.30;9.35;;;17.30;99.90;;;;;;5075792;28;20146;-79
2022/08/01 02:51:35;;;;;;;19.58;7.90;;;17.30;99.90;;;;;;5094130;28;20044;-79
2022/08/01 02:54:03;;;;;;;16.65;8.85;;;17.30;99.90;;;;;;5094013;28;20044;-79
2022/08/01 02:56:37;;;;;;;19.77;9.07;;;17.30;99.90;;;;;;5094062;28;20052;-79
2022/08/01 02:59:11;;;;;;;22.85;9.98;;;17.30;99.90;;;;;;5075926;28;20089;-80
2022/08/01 03:01:38;;;;;;;25.42;9.85;;;17.30;99.90;;;;;;5093650;28;20051;-79
2022/08/01 03:04:05;;;;;;;18.45;8.95;;;17.30;99.90;;;;;;5093914;28;20048;-79
2022/08/01 03:06:32;;;;;;;21.10;8.93;;;17.30;99.90;;;;;;5075731;28;20401;-79
2022/08/01 03:09:01;;;;;;;14.15;8.90;;;17.30;99.90;;;;;;5093849;28;20083;-79
2022/08/01 03:11:29;;;;;;;26.65;10.52;;;17.30;99.90;;;;;;5093660;28;20052;-79
2022/08/01 03:13:56;;;;;;;16.42;7.50;;;17.30;99.90;;;;;;5075694;28;20051;-81
2022/08/01 03:16:24;;;;;;;27.98;9.75;;;17.30;99.90;;;;;;5075337;28;20106;-80
2022/08/01 03:18:53;;;;;;;24.48;9.50;;;17.30;99.90;;;;;;5093621;28;20056;-80
2022/08/01 03:21:22;;;;;;;17.77;8.75;;;17.30;99.90;;;;;;5075765;28;20564;-80
2022/08/01 03:23:50;;;;;;;13.35;7.20;;;17.30;99.90;;;;;;5093495;28;20044;-80
2022/08/01 03:26:18;;;;;;;24.75;10.63;;;17.30;99.90;;;;;;5093397;28;20044;-80
2022/08/01 03:28:46;;;;;;;11.23;5.85;;;17.20;99.90;;;;;;5093264;28;20114;-82
2022/08/01 03:31:14;;;;;;;13.60;5.57;;;17.20;99.90;;;;;;5093149;28;20054;-78
2022/08/01 03:33:40;;;;;;;13.75;6.15;;;17.20;99.90;;;;;;5093487;28;20062;-79
2022/08/01 03:36:10;;;;;;;10.55;4.68;;;17.10;99.90;;;;;;5074349;28;20048;-79
2022/08/01 03:38:38;;;;;;;10.82;3.42;;;17.10;99.90;;;;;;5075382;28;20060;-78
2022/08/01 03:41:12;;;;;;;8.52;3.10;;;17.00;99.90;;;;;;5093277;28;20052;-78
2022/08/01 03:43:42;;;;;;;8.80;3.33;;;17.00;99.90;;;;;;5074913;28;20073;-80
2022/08/01 03:46:16;;;;;;;8.63;3.53;;;16.90;99.90;;;;;;5093374;28;20374;-79
2022/08/01 03:48:48;;;;;;;10.63;3.67;;;16.80;99.90;;;;;;5075475;28;20044;-79
2022/08/01 03:51:15;;;;;;;9.30;4.05;;;16.80;99.90;;;;;;5075131;28;20085;-83
2022/08/01 03:53:42;;;;;;;9.55;4.20;;;16.80;99.90;;;;;;5075009;28;20091;-79
2022/08/01 03:56:09;;;;;;;13.15;3.80;;;16.80;99.90;;;;;;5092506;28;20047;-81
2022/08/01 03:58:39;;;;;;;10.20;4.32;;;16.80;99.90;;;;;;5092974;28;20059;-79
2022/08/01 04:01:06;;;;;;;8.90;4.40;;;16.80;99.90;;;;;;5092949;28;20478;-79
2022/08/01 04:03:33;;;;;;;12.27;4.13;;;16.70;99.90;;;;;;5092860;28;20114;-79
2022/08/01 04:05:59;;;;;;;7.90;4.00;;;16.70;99.90;;;;;;5074982;28;20201;-79
2022/08/01 04:08:37;;;;;;;10.48;3.95;;;16.80;99.90;;;;;;5092857;28;20126;-79
2022/08/01 04:11:03;;;;;;;11.98;3.88;;;16.80;99.90;;;;;;5092719;28;20174;-83
2022/08/01 04:13:29;;;;;;;12.73;4.40;;;16.70;99.90;;;;;;5092914;28;20142;-79
2022/08/01 04:15:55;;;;;;;13.25;4.10;;;16.80;99.90;;;;;;5074709;28;20086;-79
2022/08/01 04:18:20;;;;;;;5.30;2.80;;;16.80;99.90;;;;;;5092950;28;20423;-79
2022/08/01 04:20:47;;;;;;;11.15;4.40;;;16.90;99.90;;;;;;5075047;28;20043;-79
2022/08/01 04:23:15;;;;;;;7.90;2.58;;;16.90;99.90;;;;;;5092682;28;20052;-80
2022/08/01 04:25:44;;;;;;;11.13;3.22;;;16.90;99.90;;;;;;5092667;28;20044;-78
2022/08/01 04:28:16;;;;;;;16.27;4.13;;;16.80;99.90;;;;;;5092761;28;20052;-79
2022/08/01 04:30:46;;;;;;;12.45;4.13;;;16.80;99.90;;;;;;5074871;28;20051;-79
2022/08/01 04:33:16;;;;;;;14.05;3.85;;;16.80;99.90;;;;;;5092698;28;20044;-79
2022/08/01 04:35:45;;;;;;;11.85;3.75;;;16.80;99.90;;;;;;5092467;28;20446;-79
2022/08/01 04:38:12;;;;;;;11.20;4.38;;;16.80;99.90;;;;;;5074268;28;20048;-79
2022/08/01 04:40:40;;;;;;;11.02;3.70;;;16.90;99.90;;;;;;5092591;28;20435;-79
2022/08/01 04:43:07;;;;;;;12.77;4.07;;;16.90;99.90;;;;;;5075027;28;20091;-79
2022/08/01 04:45:35;;;;;;;10.43;3.33;;;16.80;99.90;;;;;;5074877;28;20059;-78
2022/08/01 04:48:01;;;;;;;11.15;3.67;;;16.90;99.90;;;;;;5095758;28;20096;-79
2022/08/01 04:50:27;;;;;;;11.93;3.72;;;16.80;99.90;;;;;;5078470;28;20040;-79
2022/08/01 04:52:53;;;;;;;13.07;3.70;;;16.80;99.90;;;;;;5078344;28;20131;-79
2022/08/01 04:55:18;;;;;;;10.98;2.92;;;16.80;99.90;;;;;;5096428;28;20127;-79
2022/08/01 04:57:46;;;;;;;17.48;3.80;;;16.80;99.90;;;;;;5061901;28;20135;-78
2022/08/01 05:00:13;;;;;;;15.88;3.95;;;16.70;99.90;;;;;;5077622;28;20509;-79
2022/08/01 05:02:38;;;;;;;14.90;4.07;;;16.80;99.90;;;;;;5096254;28;20131;-79
2022/08/01 05:05:05;;;;;;;11.20;3.90;;;16.70;99.90;;;;;;5095936;28;20570;-79
2022/08/01 05:07:33;;;;;;;12.30;3.90;;;16.80;99.90;;;;;;5078118;28;20185;-81
2022/08/01 05:09:58;;;;;;;10.00;4.22;;;16.80;99.90;;;;;;5095937;28;20554;-79
2022/08/01 05:12:24;;;;;;;9.98;3.55;;;16.70;99.90;;;;;;5096011;28;20047;-79
2022/08/01 05:14:50;;;;;;;18.40;4.07;;;16.80;99.90;;;;;;5095913;28;20044;-79
2022/08/01 05:17:16;;;;;;;10.52;3.25;;;16.80;99.90;;;;;;5096154;28;20046;-81
2022/08/01 05:19:42;;;;;;;11.18;4.32;;;16.80;99.90;;;;;;5077729;28;20135;-79
2022/08/01 05:22:09;;;;;;;15.43;3.90;;;16.80;99.90;;;;;;5095936;28;20052;-79
2022/08/01 05:24:37;;;;;;;13.10;4.38;;;16.90;99.90;;;;;;5095608;28;20058;-79
2022/08/01 05:27:03;;;;;;;13.02;3.03;;;16.90;99.90;;;;;;5061369;28;20117;-79
2022/08/01 05:29:29;;;;;;;11.23;2.78;;;16.90;99.90;;;;;;5095771;28;20059;-79
2022/08/01 05:31:56;;;;;;;12.90;3.60;;;16.80;99.90;;;;;;5095592;28;20052;-80
2022/08/01 05:34:22;;;;;;;12.88;3.88;;;16.90;99.90;;;;;;5095561;28;20044;-79
2022/08/01 05:36:47;;;;;;;16.38;3.88;;;16.90;99.90;;;;;;5077367;28;20501;-78
2022/08/01 05:39:14;;;;;;;14.80;3.83;;;16.80;99.90;;;;;;5095279;28;20048;-79
2022/08/01 05:41:40;;;;;;;21.15;4.18;;;16.70;99.90;;;;;;5077622;28;20449;-78
2022/08/01 05:44:06;;;;;;;14.82;4.28;;;16.70;99.90;;;;;;5095472;28;20409;-80
2022/08/01 05:46:33;;;;;;;14.50;4.28;;;16.70;99.90;;;;;;5077312;28;20428;-79
2022/08/01 05:48:59;;;;;;;18.33;4.60;;;16.70;99.90;;;;;;5077246;28;20481;-79
2022/08/01 05:51:26;;;;;;;16.65;4.60;;;16.70;99.90;;;;;;5095269;28;20086;-79
2022/08/01 05:53:51;;;;;;;14.02;3.47;;;16.70;99.90;;;;;;5077173;28;20055;-78
2022/08/01 05:56:17;;;;;;;19.25;4.15;;;16.70;99.90;;;;;;5076860;28;20044;-79
2022/08/01 05:58:43;;;;;;;17.40;4.20;;;16.90;99.90;;;;;;5076232;28;20082;-78
2022/08/01 06:01:09;;;;;;;12.70;4.18;;;17.00;99.90;;;;;;5095281;28;20090;-79
2022/08/01 06:03:34;;;;;;;12.18;3.50;;;17.00;99.90;;;;;;5095183;28;20052;-78
2022/08/01 06:06:00;;;;;;;13.70;3.70;;;16.90;99.90;;;;;;5095140;28;20048;-78
2022/08/01 06:08:27;;;;;;;13.43;3.78;;;16.90;99.90;;;;;;5094726;28;20052;-79
2022/08/01 06:10:52;;;;;;;16.40;3.28;;;16.90;99.90;;;;;;5095065;28;20106;-79
2022/08/01 06:13:19;;;;;;;17.98;3.80;;;16.80;99.90;;;;;;5094943;28;20518;-79
2022/08/01 06:15:45;;;;;;;15.63;3.75;;;16.80;99.90;;;;;;5076776;28;20079;-79
2022/08/01 06:18:11;;;;;;;18.48;4.20;;;16.90;99.90;;;;;;5076986;28;20040;-80
2022/08/01 06:20:36;;;;;;;13.05;3.90;;;16.80;99.90;;;;;;5094624;28;20075;-80
2022/08/01 06:23:02;;;;;;;11.43;3.13;;;16.90;99.90;;;;;;5076692;28;20366;-79
2022/08/01 06:25:28;;;;;;;19.98;4.07;;;16.80;99.90;;;;;;5094258;28;20074;-79
2022/08/01 06:27:53;;;;;;;14.30;3.80;;;16.80;99.90;;;;;;5076905;28;20063;-79
2022/08/01 06:30:19;;;;;;;13.52;3.22;;;16.90;99.90;;;;;;5094644;28;20393;-79
2022/08/01 06:32:45;;;;;;;18.02;3.70;;;16.90;99.90;;;;;;5094539;28;20131;-78
2022/08/01 06:35:11;;;;;;;16.80;3.33;;;16.90;99.90;;;;;;5076566;28;20050;-79
2022/08/01 06:37:36;;;;;;;16.10;3.22;;;16.80;99.90;;;;;;5094309;28;20493;-78
2022/08/01 06:40:08;;;;;;;17.02;3.30;;;16.80;99.90;;;;;;5075958;28;20130;-80
2022/08/01 06:42:35;;;;;;;18.83;3.83;;;16.80;99.90;;;;;;5094313;28;20056;-78
2022/08/01 06:45:03;;;;;;;23.40;3.65;;;16.80;99.90;;;;;;5076458;28;20091;-78
2022/08/01 06:47:29;;;;;;;16.80;2.92;;;16.70;99.90;;;;;;5094175;28;20044;-78
2022/08/01 06:49:56;;;;;;;18.58;3.88;;;16.70;99.90;;;;;;5076012;28;20059;-81
2022/08/01 06:52:22;;;;;;;20.25;3.20;;;16.70;99.90;;;;;;5094028;28;20105;-82
2022/08/01 06:54:47;;;;;;;20.55;3.28;;;16.80;99.90;;;;;;5093765;28;20079;-79
2022/08/01 06:57:13;;;;;;;19.63;3.45;;;16.90;99.90;;;;;;5094250;28;20047;-79
2022/08/01 06:59:39;;;;;;;15.90;3.15;;;17.00;99.90;;;;;;5094059;28;20044;-79
2022/08/01 07:02:04;;;;;;;16.90;3.08;;;17.10;99.90;;;;;;5076021;28;20136;-79
2022/08/01 07:04:30;;;;;;;14.63;3.33;;;17.20;99.90;;;;;;5093885;28;20086;-80
2022/08/01 07:06:56;;;;;;;16.33;4.50;;;17.20;99.90;;;;;;5075707;28;20048;-80
2022/08/01 07:09:22;;;;;;;20.73;3.63;;;17.10;99.90;;;;;;5075740;28;20047;-79
2022/08/01 07:11:48;;;;;;;15.60;2.90;;;17.10;99.90;;;;;;5093802;28;20048;-79
2022/08/01 07:14:13;;;;;;;22.38;3.85;;;17.20;99.90;;;;;;5093790;28;20130;-79
2022/08/01 07:16:39;;;;;;;17.40;2.90;;;17.40;99.90;;;;;;5093634;28;20568;-81
2022/08/01 07:19:05;;;;;;;17.38;3.03;;;17.40;99.90;;;;;;5075554;28;20048;-81
2022/08/01 07:21:30;;;;;;;11.40;2.72;;;17.50;99.90;;;;;;5093471;28;20044;-81
2022/08/01 07:23:56;;;;;;;16.88;3.10;;;17.60;99.90;;;;;;5075604;28;20087;-80
2022/08/01 07:26:21;;;;;;;17.05;3.55;;;17.80;99.90;;;;;;5093624;28;20542;-80
2022/08/01 07:28:47;;;;;;;18.42;3.10;;;17.90;99.90;;;;;;5075745;28;20052;-80
2022/08/01 07:31:13;;;;;;;19.95;2.95;;;18.10;99.90;;;;;;5093198;28;20044;-83
2022/08/01 07:33:38;;;;;;;13.63;2.65;;;18.10;99.90;;;;;;5075477;28;20051;-79
2022/08/01 07:36:04;;;;;;;13.52;2.78;;;18.10;99.90;;;;;;5075192;28;20105;-81
2022/08/01 07:38:29;;;;;;;20.13;3.67;;;18.10;99.90;;;;;;5093210;28;20485;-83
2022/08/01 07:40:55;;;;;;;21.33;3.00;;;18.20;99.90;;;;;;5093045;28;20055;-81
2022/08/01 07:43:21;;;;;;;16.40;2.80;;;18.10;99.90;;;;;;5075110;28;20139;-80
2022/08/01 07:45:46;;;;;;;10.57;2.10;;;18.00;99.90;;;;;;5093229;28;20503;-81
2022/08/01 07:48:12;;;;;;;17.48;2.80;;;18.00;99.90;;;;;;5092995;28;20044;-82
2022/08/01 07:50:38;;;;;;;17.60;3.42;;;18.10;99.90;;;;;;5093064;28;20047;-80
2022/08/01 07:53:04;;;;;;;12.27;2.42;;;18.20;99.90;;;;;;5074849;28;20055;-81
2022/08/01 07:55:29;;;;;;;13.77;2.60;;;18.40;99.90;;;;;;5092891;28;20083;-81
2022/08/01 07:57:55;;;;;;;18.40;2.78;;;18.40;99.90;;;;;;5093062;28;20062;-82
2022/08/01 08:00:21;;;;;;;14.35;2.70;;;18.60;99.90;;;;;;5093095;28;20052;-81
2022/08/01 08:02:46;;;;;;;11.60;2.60;;;18.80;99.90;;;;;;5093109;28;20438;-80
2022/08/01 08:05:12;;;;;;;17.15;2.88;;;19.30;99.90;;;;;;5075250;28;20511;-81
2022/08/01 08:07:38;;;;;;;17.83;2.83;;;19.90;99.90;;;;;;5092813;28;20476;-81
2022/08/01 08:10:05;;;;;;;16.17;2.55;;;20.10;99.90;;;;;;5092735;28;20148;-82
2022/08/01 08:12:31;;;;;;;14.77;3.08;;;20.10;99.90;;;;;;5092560;28;20048;-80
2022/08/01 08:14:58;;;;;;;17.67;2.60;;;20.10;99.90;;;;;;5092847;28;20050;-82
2022/08/01 08:17:25;;;;;;;11.35;2.17;;;20.10;99.90;;;;;;5058399;28;20052;-81
2022/08/01 08:19:50;;;;;;;10.63;2.38;;;20.30;99.90;;;;;;5074789;28;20059;-81
2022/08/01 08:22:16;;;;;;;11.75;2.38;;;20.70;99.90;;;;;;5080519;28;20047;-82
2022/08/01 08:24:42;;;;;;;11.05;2.10;;;21.40;99.90;;;;;;5099620;28;20366;-81
2022/08/01 08:27:07;;;;;;;13.68;2.95;;;21.80;99.90;;;;;;5099747;28;20044;-82
2022/08/01 08:29:33;;;;;;;15.65;2.50;;;22.20;99.90;;;;;;5099483;28;20097;-81
2022/08/01 08:32:00;;;;;;;13.82;2.17;;;22.30;99.90;;;;;;5081639;28;20134;-82
2022/08/01 08:34:27;;;;;;;12.43;2.10;;;22.10;99.90;;;;;;5081194;28;20595;-82
2022/08/01 08:36:55;;;;;;;20.85;2.60;;;21.80;99.90;;;;;;5099472;28;20273;-81
2022/08/01 08:39:21;;;;;;;13.05;2.38;;;21.60;99.90;;;;;;5099414;28;20082;-82
2022/08/01 08:41:48;;;;;;;16.17;3.15;;;21.80;99.90;;;;;;5080990;28;20048;-81
2022/08/01 08:44:14;;;;;;;13.30;2.53;;;22.10;99.90;;;;;;5081562;28;20040;-81
2022/08/01 08:46:51;;;;;;;12.40;2.45;;;21.90;99.90;;;;;;5080942;28;20097;-82
2022/08/01 08:49:23;;;;;;;11.52;2.20;;;21.70;99.90;;;;;;5099515;28;20044;-82
2022/08/01 08:51:51;;;;;;;13.93;2.13;;;21.50;99.90;;;;;;5081053;28;20055;-82
2022/08/01 08:54:20;;;;;;;12.07;2.30;;;21.30;99.90;;;;;;5080847;28;20076;-82
2022/08/01 08:56:46;;;;;;;13.45;2.10;;;21.20;99.90;;;;;;5081364;28;20063;-83
2022/08/01 08:59:15;;;;;;;12.15;2.58;;;21.70;99.90;;;;;;5099359;28;20134;-82
2022/08/01 09:01:42;;;;;;;18.42;2.50;;;22.40;99.90;;;;;;5081373;28;20052;-81
2022/08/01 09:04:08;;;;;;;10.82;2.13;;;23.00;99.90;;;;;;5099050;28;20048;-82
2022/08/01 09:06:34;;;;;;;9.57;1.92;;;23.00;99.90;;;;;;5063932;28;20062;-82
2022/08/01 09:08:59;;;;;;;10.00;2.20;;;22.80;99.90;;;;;;5098980;28;20044;-83
2022/08/01 09:11:26;;;;;;;12.75;2.00;;;22.80;99.90;;;;;;5081161;28;20055;-82
2022/08/01 09:14:14;;;;;;;10.73;2.40;;;22.80;99.90;;;;;;5081136;28;20117;-83
2022/08/01 09:16:43;;;;;;;12.55;1.85;;;22.70;99.90;;;;;;5080771;28;20048;-84
2022/08/01 09:19:14;;;;;;;11.20;1.95;;;22.30;99.90;;;;;;5081211;28;20048;-82
2022/08/01 09:21:59;;;;;;;10.90;2.10;;;22.00;99.90;;;;;;5098909;28;20397;-82
2022/08/01 09:24:27;;;;;;;9.10;1.98;;;21.70;99.90;;;;;;5098983;28;20395;-82
2022/08/01 09:26:54;;;;;;;15.27;2.33;;;22.10;99.90;;;;;;5064565;28;20043;-81
2022/08/01 09:29:28;;;;;;;12.27;2.03;;;22.80;99.90;;;;;;5098949;28;20078;-83
2022/08/01 09:31:55;;;;;;;11.32;2.03;;;23.40;99.90;;;;;;5080145;28;20056;-83
2022/08/01 09:34:26;;;;;;;10.68;1.98;;;23.70;99.90;;;;;;5094493;28;20146;-83
2022/08/01 09:37:00;;;;;;;12.68;1.80;;;24.60;99.90;;;;;;5077720;28;20508;-84
2022/08/01 09:39:36;;;;;;;12.13;2.50;;;25.50;99.90;;;;;;5095556;28;20044;-83
2022/08/01 09:42:19;;;;;;;12.38;1.90;;;26.00;99.90;;;;;;5095545;28;20052;-82
2022/08/01 09:44:45;;;;;;;11.40;1.70;;;26.50;98.70;;;;;;5077626;28;20130;-84
2022/08/01 09:47:12;;;;;;;11.77;1.77;;;27.00;90.30;;;;;;5076128;28;20531;-85
2022/08/01 09:49:40;;;;;;;7.03;1.63;;;27.10;80.20;;;;;;5077622;28;20091;-84
2022/08/01 09:52:20;;;;;;;10.48;2.15;;;26.30;78.70;;;;;;5095559;28;20058;-82
2022/08/01 09:54:58;;;;;;;8.98;1.70;;;25.50;91.00;;;;;;5077433;28;20048;-83
2022/08/01 09:57:24;;;;;;;7.80;1.95;;;25.20;99.90;;;;;;5095153;28;20062;-84
2022/08/01 09:59:52;;;;;;;7.60;1.75;;;25.20;92.30;;;;;;5095203;28;20086;-84
2022/08/01 10:02:32;;;;;;;14.27;2.40;;;25.30;91.80;;;;;;5077285;28;20052;-83
2022/08/01 10:04:59;;;;;;;;;;;25.70;99.70;;;;;;5077496;28;20056;-83
2022/08/01 10:07:25;;;;;;;8.57;1.60;;;26.20;97.70;;;;;;5077089;28;20136;-83
2022/08/01 10:09:51;;;;;;;11.07;2.03;;;26.60;83.00;;;;;;5077077;28;20055;-83
2022/08/01 10:12:21;;;;;;;9.38;1.60;;;26.90;77.90;;;;;;5076816;28;20424;-81
2022/08/01 10:14:55;;;;;;;8.23;1.52;;;27.10;86.60;;;;;;5095108;28;20137;-81
2022/08/01 10:17:24;;;;;;;9.95;1.67;;;27.40;75.90;;;;;;5076808;28;20500;-83
2022/08/01 10:19:54;;;;;;;10.68;1.67;;;27.00;83.10;;;;;;5077061;28;20044;-84
2022/08/01 10:22:23;;;;;;;5.47;1.70;;;27.00;76.60;;;;;;5077028;28;20125;-84
2022/08/01 10:24:51;;;;;;;7.80;1.52;;;27.10;75.40;;;;;;5094375;28;20044;-85
2022/08/01 10:27:18;;;;;;;7.22;1.50;;;27.20;75.00;;;;;;5077051;28;20052;-84
2022/08/01 10:29:54;;;;;;;7.70;1.65;;;27.40;71.70;;;;;;5076856;28;20066;-82
2022/08/01 10:32:20;;;;;;;13.85;2.00;;;27.20;75.80;;;;;;5094535;28;20048;-82
2022/08/01 10:34:46;;;;;;;4.65;1.25;;;27.10;76.10;;;;;;5094351;28;20036;-84
2022/08/01 10:37:13;;;;;;;8.75;1.40;;;26.90;73.70;;;;;;5076453;28;20044;-84
2022/08/01 10:39:39;;;;;;;7.70;1.60;;;26.60;71.90;;;;;;5094304;28;20052;-84
2022/08/01 10:42:06;;;;;;;7.28;1.33;;;26.70;69.60;;;;;;5094224;28;20553;-84
2022/08/01 10:44:33;;;;;;;7.47;1.42;;;27.20;70.30;;;;;;5093838;28;20064;-83
2022/08/01 10:47:10;;;;;;;5.88;1.40;;;27.70;67.70;;;;;;5075993;28;20605;-84
2022/08/01 10:49:43;;;;;;;6.53;1.45;;;28.20;63.70;;;;;;5076255;28;20439;-84
2022/08/01 10:52:35;;;;;;;8.00;1.42;;;28.00;62.20;;;;;;5076122;28;20054;-84
2022/08/01 10:55:03;;;;;;;5.07;1.20;;;27.60;64.70;;;;;;5076027;28;20043;-84
2022/08/01 10:57:45;;;;;;;4.13;1.33;;;27.60;61.10;;;;;;5076275;28;20134;-84
2022/08/01 11:00:21;;;;;;;8.23;1.52;;;27.60;61.40;;;;;;5093842;28;20087;-85
2022/08/01 11:03:03;;;;;;;5.57;1.13;;;27.80;60.00;;;;;;5093715;28;20075;-84
2022/08/01 11:05:32;;;;;;;5.05;1.25;;;28.00;61.70;;;;;;5058743;28;20048;-83
2022/08/01 11:08:02;;;;;;;4.80;1.38;;;28.20;61.90;;;;;;5075699;28;20055;-82
2022/08/01 11:10:37;;;;;;;7.80;1.25;;;28.40;60.70;;;;;;5074596;28;20056;-85
2022/08/01 11:13:07;;;;;;;5.15;1.27;;;28.30;58.10;;;;;;5075501;28;20048;-85
2022/08/01 11:15:33;;;;;;;6.13;1.33;;;27.80;59.40;;;;;;5093475;28;20472;-84
2022/08/01 11:18:01;;;;;;;6.40;1.20;;;27.70;59.60;;;;;;5058773;28;20119;-82
2022/08/01 11:20:32;;;;;;;6.60;1.60;;;27.70;60.20;;;;;;5075108;28;20096;-83
2022/08/01 11:23:01;;;;;;;15.55;1.63;;;27.80;59.60;;;;;;5075242;28;20044;-84
2022/08/01 11:25:36;;;;;;;5.05;1.30;;;27.80;58.60;;;;;;5058777;28;20044;-84
2022/08/01 11:28:14;;;;;;;6.75;1.70;;;27.60;57.30;;;;;;5075465;28;20158;-84
2022/08/01 11:30:51;;;;;;;6.13;1.35;;;27.20;57.30;;;;;;5075446;28;20048;-84
2022/08/01 11:33:38;;;;;;;7.90;1.63;;;26.50;60.10;;;;;;5058484;28;20056;-85
2022/08/01 11:36:10;;;;;;;5.25;1.13;;;26.00;60.80;;;;;;5074286;28;20133;-84
2022/08/01 11:38:43;;;;;;;5.43;1.35;;;25.50;63.10;;;;;;5075220;28;20135;-81
2022/08/01 11:41:15;;;;;;;7.07;1.35;;;25.30;64.10;;;;;;5093144;28;20409;-84
2022/08/01 11:43:58;;;;;;;7.88;1.45;;;25.30;65.10;;;;;;5074966;28;20043;-84
2022/08/01 11:46:47;;;;;;;7.43;1.45;;;25.70;65.80;;;;;;5075041;28;20056;-84
2022/08/01 11:49:23;;;;;;;7.40;1.50;;;26.10;66.90;;;;;;5058583;28;20046;-83
2022/08/01 11:52:05;;;;;;;6.10;1.40;;;26.10;63.30;;;;;;5075000;28;20048;-84
2022/08/01 11:54:38;;;;;;;9.35;1.30;;;25.90;63.40;;;;;;5058109;28;20048;-84
2022/08/01 11:57:06;;;;;;;6.30;1.30;;;26.00;69.20;;;;;;5074001;28;20498;-84
2022/08/01 11:59:39;;;;;;;7.88;1.40;;;26.30;68.20;;;;;;5092463;28;20408;-83
2022/08/01 12:02:19;;;;;;;7.63;1.38;;;26.60;62.60;;;;;;5074750;28;20040;-83
2022/08/01 12:04:49;;;;;;;7.60;1.60;;;26.60;60.80;;;;;;5074897;28;20091;-85
2022/08/01 12:07:15;;;;;;;;;;;26.60;60.70;;;;;;5075023;28;20064;-85
2022/08/01 12:09:46;;;;;;;5.68;1.40;;;26.70;60.50;;;;;;5074735;28;20015;-83
2022/08/01 12:12:14;;;;;;;;;;;26.60;61.70;;;;;;5093256;28;20443;-82
2022/08/01 12:14:40;;;;;;;4.20;1.20;;;26.60;60.80;;;;;;5074988;28;20010;-82
2022/08/01 12:17:06;;;;;;;5.95;1.38;;;26.50;60.80;;;;;;5074768;28;20131;-83
2022/08/01 12:19:31;;;;;;;8.02;1.70;;;26.30;62.20;;;;;;5074361;28;20484;-83
2022/08/01 12:22:21;;;;;;;5.32;1.10;;;26.20;61.50;;;;;;5074641;28;20044;-84
2022/08/01 12:24:47;;;;;;;8.67;1.50;;;26.20;62.00;;;;;;5074780;28;20148;-84
2022/08/01 12:27:30;;;;;;;7.95;1.80;;;25.70;61.40;;;;;;5092870;28;20079;-82
2022/08/01 12:29:57;;;;;;;7.95;1.42;;;25.30;60.20;;;;;;5092626;28;20113;-83
2022/08/01 12:32:31;;;;;;;5.75;1.10;;;24.90;63.40;;;;;;5092580;28;20121;-84
2022/08/01 12:35:01;;;;;;;6.50;1.48;;;24.50;64.60;;;;;;5074350;28;20137;-83
2022/08/01 12:37:27;;;;;;;8.32;1.20;;;24.30;69.60;;;;;;5058201;28;20086;-85
2022/08/01 12:39:53;;;;;;;5.47;1.40;;;24.40;69.30;;;;;;5074928;28;20451;-86
2022/08/01 12:42:20;;;;;;;6.57;1.30;;;24.50;67.10;;;;;;5092600;28;20043;-84
2022/08/01 12:44:50;;;;;;;7.72;1.60;;;24.90;67.50;;;;;;5075039;28;20063;-84
2022/08/01 12:47:17;;;;;;;3.75;1.00;;;25.40;68.80;;;;;;5074705;28;20090;-86